Time;durP1;ratioP1;P1;durP2;ratioP2;P2;SDS_P1;SDS_P2;PMS_P1;PMS_P2;Temp;Humidity;BMP_temperature;BMP_pressure;BME280_temperature;BME280_humidity;BME280_pressure;Samples;Min_cycle;Max_cycle;Signal;HPM_P1;HPM_P2
2021/06/10 00:00:26;;;;;;;19.25;14.68;;;16.80;99.90;;;;;;5073037;28;20103;-68
2021/06/10 00:02:53;;;;;;;15.38;13.20;;;16.70;99.90;;;;;;5071526;28;20049;-68
2021/06/10 00:05:21;;;;;;;17.13;14.00;;;16.70;99.90;;;;;;5073806;28;20136;-68
2021/06/10 00:07:49;;;;;;;17.67;14.20;;;16.70;99.90;;;;;;5072383;28;20138;-68
2021/06/10 00:10:19;;;;;;;13.68;12.15;;;16.60;99.90;;;;;;5070674;28;20332;-68
2021/06/10 00:12:47;;;;;;;18.80;14.35;;;16.60;99.90;;;;;;5074799;28;20122;-68
2021/06/10 00:15:18;;;;;;;15.18;13.32;;;16.60;99.90;;;;;;5074841;28;20068;-68
2021/06/10 00:17:45;;;;;;;16.05;12.93;;;16.60;99.90;;;;;;5073197;28;20088;-68
2021/06/10 00:20:15;;;;;;;17.88;12.80;;;16.50;99.90;;;;;;5073183;28;20467;-68
2021/06/10 00:22:44;;;;;;;14.40;12.88;;;16.50;99.90;;;;;;5071909;28;20057;-68
2021/06/10 00:25:12;;;;;;;19.00;12.90;;;16.50;99.90;;;;;;5066935;28;20098;-68
2021/06/10 00:27:41;;;;;;;14.63;12.38;;;16.40;99.90;;;;;;5080725;28;20076;-68
2021/06/10 00:30:11;;;;;;;15.60;12.52;;;16.40;99.90;;;;;;5068069;28;20106;-68
2021/06/10 00:32:38;;;;;;;14.90;12.32;;;16.40;99.90;;;;;;5064716;28;20102;-68
2021/06/10 00:35:06;;;;;;;17.40;13.98;;;16.30;99.90;;;;;;5059205;28;20049;-68
2021/06/10 00:37:34;;;;;;;17.67;13.60;;;16.30;99.90;;;;;;5073301;28;20136;-68
2021/06/10 00:40:03;;;;;;;15.35;12.45;;;16.30;99.90;;;;;;5068990;28;20502;-68
2021/06/10 00:42:31;;;;;;;16.05;13.00;;;16.30;99.90;;;;;;5073273;28;20044;-68
2021/06/10 00:44:58;;;;;;;13.95;12.45;;;16.30;99.90;;;;;;5073193;28;20048;-68
2021/06/10 00:47:26;;;;;;;17.80;12.93;;;16.30;99.90;;;;;;5073215;28;20064;-68
2021/06/10 00:49:53;;;;;;;16.60;13.30;;;16.30;99.90;;;;;;5071237;28;20440;-68
2021/06/10 00:52:21;;;;;;;16.13;13.88;;;16.30;99.90;;;;;;5073136;28;20068;-68
2021/06/10 00:54:48;;;;;;;17.13;13.68;;;16.20;99.90;;;;;;5071785;28;20068;-68
2021/06/10 00:57:15;;;;;;;14.25;12.68;;;16.30;99.90;;;;;;5072090;28;20159;-68
2021/06/10 00:59:43;;;;;;;15.93;13.77;;;16.30;99.90;;;;;;5060931;28;20060;-68
2021/06/10 01:02:10;;;;;;;14.63;12.45;;;16.30;99.90;;;;;;5073063;28;20135;-68
2021/06/10 01:04:37;;;;;;;16.98;13.27;;;16.30;99.90;;;;;;5062206;28;20044;-68
2021/06/10 01:07:10;;;;;;;16.33;13.38;;;16.30;99.90;;;;;;5073027;28;20503;-68
2021/06/10 01:09:46;;;;;;;18.05;14.48;;;16.30;99.90;;;;;;5072324;28;20071;-68
2021/06/10 01:12:21;;;;;;;15.57;12.75;;;16.30;99.90;;;;;;5065603;28;20076;-68
2021/06/10 01:15:11;;;;;;;22.02;17.33;;;16.30;99.90;;;;;;5072324;28;20452;-68
2021/06/10 01:17:44;;;;;;;17.80;14.68;;;16.30;99.90;;;;;;5070492;28;20469;-68
2021/06/10 01:20:13;;;;;;;21.45;13.95;;;16.30;99.90;;;;;;5074177;28;20080;-68
2021/06/10 01:22:58;;;;;;;19.02;15.30;;;16.20;99.90;;;;;;5070103;28;20418;-68
2021/06/10 01:25:45;;;;;;;17.67;14.50;;;16.20;99.90;;;;;;5063421;28;20082;-68
2021/06/10 01:28:29;;;;;;;20.10;14.32;;;16.10;99.90;;;;;;5069320;28;20051;-68
2021/06/10 01:30:59;;;;;;;16.77;14.55;;;16.10;99.90;;;;;;5062130;28;20094;-68
2021/06/10 01:33:40;;;;;;;18.17;15.18;;;16.10;99.90;;;;;;5084658;28;20049;-68
2021/06/10 01:36:14;;;;;;;17.85;14.95;;;16.00;99.90;;;;;;5063198;28;20063;-68
2021/06/10 01:38:46;;;;;;;17.73;14.30;;;16.00;99.90;;;;;;5051544;28;20171;-68
2021/06/10 01:41:14;;;;;;;;;;;15.90;99.90;;;;;;5068627;28;20122;-68
2021/06/10 01:43:43;;;;;;;21.00;14.68;;;15.90;99.90;;;;;;5066558;28;19925;-68
2021/06/10 01:46:12;;;;;;;16.52;13.70;;;15.80;99.90;;;;;;5071330;28;20479;-68
2021/06/10 01:48:43;;;;;;;17.08;14.02;;;15.90;99.90;;;;;;5072074;28;20392;-68
2021/06/10 01:51:11;;;;;;;17.60;13.25;;;15.80;99.90;;;;;;5060899;28;20119;-68
2021/06/10 01:53:41;;;;;;;16.33;13.88;;;15.80;99.90;;;;;;5071955;28;20087;-68
2021/06/10 01:56:10;;;;;;;16.13;13.00;;;15.80;99.90;;;;;;5065006;28;20064;-68
2021/06/10 01:58:38;;;;;;;18.08;14.52;;;15.80;99.90;;;;;;5087798;28;20045;-68
2021/06/10 02:01:07;;;;;;;16.70;13.70;;;15.90;99.90;;;;;;5067317;28;20060;-68
2021/06/10 02:03:35;;;;;;;16.45;14.30;;;15.90;99.90;;;;;;5065499;28;20052;-68
2021/06/10 02:06:04;;;;;;;17.08;14.40;;;16.00;99.90;;;;;;5068656;28;20399;-68
2021/06/10 02:08:32;;;;;;;25.50;19.73;;;16.00;99.90;;;;;;5071203;28;20105;-68
2021/06/10 02:11:00;;;;;;;23.92;19.38;;;16.00;99.90;;;;;;5071391;28;20044;-69
2021/06/10 02:13:30;;;;;;;30.23;20.58;;;16.10;99.90;;;;;;5072395;28;20057;-68
2021/06/10 02:16:02;;;;;;;28.83;21.40;;;16.10;99.90;;;;;;5086139;28;20048;-68
2021/06/10 02:18:30;;;;;;;24.75;19.10;;;16.00;99.90;;;;;;5070403;28;20050;-68
2021/06/10 02:21:02;;;;;;;30.45;19.95;;;16.00;99.90;;;;;;5068870;28;20135;-68
2021/06/10 02:23:30;;;;;;;24.83;19.25;;;16.00;99.90;;;;;;5067663;28;20404;-68
2021/06/10 02:25:58;;;;;;;23.58;17.98;;;15.90;99.90;;;;;;5074147;28;20503;-68
2021/06/10 02:28:26;;;;;;;21.98;17.00;;;15.80;99.90;;;;;;5071193;28;20040;-68
2021/06/10 02:30:54;;;;;;;23.35;18.65;;;15.70;99.90;;;;;;5063417;28;20041;-68
2021/06/10 02:33:21;;;;;;;23.70;17.58;;;15.70;99.90;;;;;;5071006;28;20125;-68
2021/06/10 02:35:48;;;;;;;19.67;16.35;;;15.60;99.90;;;;;;5057067;28;20147;-68
2021/06/10 02:38:20;;;;;;;21.33;16.75;;;15.60;99.90;;;;;;5069511;28;20052;-68
2021/06/10 02:40:51;;;;;;;25.23;19.42;;;15.60;99.90;;;;;;5057110;28;20083;-68
2021/06/10 02:43:19;;;;;;;25.27;19.67;;;15.50;99.90;;;;;;5069275;28;20067;-68
2021/06/10 02:45:49;;;;;;;28.88;21.33;;;15.50;99.90;;;;;;5057785;28;20175;-68
2021/06/10 02:48:18;;;;;;;27.05;19.90;;;15.50;99.90;;;;;;5069289;28;20067;-68
2021/06/10 02:50:47;;;;;;;26.77;20.60;;;15.50;99.90;;;;;;5070626;28;20449;-68
2021/06/10 02:53:19;;;;;;;29.13;21.95;;;15.50;99.90;;;;;;5064727;28;20049;-68
2021/06/10 02:55:49;;;;;;;28.15;19.92;;;15.50;99.90;;;;;;5081791;28;20463;-68
2021/06/10 02:58:21;;;;;;;23.83;19.15;;;15.50;99.90;;;;;;5068583;28;20127;-68
2021/06/10 03:00:49;;;;;;;22.27;17.90;;;15.40;99.90;;;;;;5071994;28;20550;-68
2021/06/10 03:03:17;;;;;;;18.58;15.30;;;15.40;99.90;;;;;;5060193;28;20206;-68
2021/06/10 03:05:46;;;;;;;21.00;16.98;;;15.30;99.90;;;;;;5058799;28;20507;-68
2021/06/10 03:08:17;;;;;;;18.88;16.10;;;15.30;99.90;;;;;;5063063;28;20082;-68
2021/06/10 03:10:46;;;;;;;22.25;16.38;;;15.20;99.90;;;;;;5068984;28;20504;-68
2021/06/10 03:13:19;;;;;;;17.73;14.90;;;15.20;99.90;;;;;;5057348;28;20040;-68
2021/06/10 03:15:47;;;;;;;18.85;14.55;;;15.20;99.90;;;;;;5071261;28;20132;-68
2021/06/10 03:18:15;;;;;;;17.13;14.32;;;15.20;99.90;;;;;;5060116;28;20041;-68
2021/06/10 03:20:43;;;;;;;16.30;14.00;;;15.20;99.90;;;;;;5068938;28;20384;-68
2021/06/10 03:23:11;;;;;;;19.35;14.85;;;15.20;99.90;;;;;;5068120;28;20498;-68
2021/06/10 03:25:40;;;;;;;18.52;14.35;;;15.30;99.90;;;;;;5053989;28;20055;-68
2021/06/10 03:28:08;;;;;;;16.92;14.07;;;15.40;99.90;;;;;;5069577;28;20036;-68
2021/06/10 03:30:36;;;;;;;18.02;13.60;;;15.40;99.90;;;;;;5070819;28;20080;-68
2021/06/10 03:33:06;;;;;;;15.30;12.95;;;15.50;99.90;;;;;;5069428;28;20155;-68
2021/06/10 03:35:36;;;;;;;18.55;13.88;;;15.50;99.90;;;;;;5059367;28;20057;-68
2021/06/10 03:38:05;;;;;;;15.18;13.57;;;15.60;99.90;;;;;;5069666;28;20491;-68
2021/06/10 03:40:34;;;;;;;16.25;13.10;;;15.70;99.90;;;;;;5069683;28;20053;-68
2021/06/10 03:43:04;;;;;;;18.02;16.00;;;15.70;99.90;;;;;;5062041;28;20067;-68
2021/06/10 03:45:33;;;;;;;20.73;16.30;;;15.80;99.90;;;;;;5065323;28;20072;-68
2021/06/10 03:48:02;;;;;;;19.73;16.25;;;15.90;99.90;;;;;;5031332;28;20045;-68
2021/06/10 03:50:32;;;;;;;18.73;15.75;;;15.90;99.90;;;;;;5066598;28;20430;-68
2021/06/10 03:53:00;;;;;;;18.27;14.27;;;15.90;99.90;;;;;;5070341;28;20050;-68
2021/06/10 03:55:28;;;;;;;18.92;14.77;;;15.90;99.90;;;;;;5067629;28;20450;-68
2021/06/10 03:57:55;;;;;;;19.90;16.15;;;15.90;99.90;;;;;;5059079;28;20052;-68
2021/06/10 04:00:23;;;;;;;20.15;15.98;;;15.90;99.90;;;;;;5068601;28;20131;-68
2021/06/10 04:02:50;;;;;;;19.02;14.30;;;15.90;99.90;;;;;;5056391;28;20041;-68
2021/06/10 04:05:18;;;;;;;18.42;13.85;;;16.00;99.90;;;;;;5059760;28;20048;-68
2021/06/10 04:07:46;;;;;;;17.45;13.75;;;16.00;99.90;;;;;;5070060;28;20098;-68
2021/06/10 04:10:14;;;;;;;16.75;14.77;;;16.00;99.90;;;;;;5060622;28;20171;-68
2021/06/10 04:12:41;;;;;;;15.88;13.93;;;16.10;99.90;;;;;;5063779;28;20087;-68
2021/06/10 04:15:09;;;;;;;17.65;13.57;;;16.10;99.90;;;;;;5068025;28;20063;-68
2021/06/10 04:17:37;;;;;;;20.60;16.17;;;16.20;99.90;;;;;;5075565;28;20068;-68
2021/06/10 04:20:06;;;;;;;16.55;13.75;;;16.30;99.90;;;;;;5069026;28;20465;-68
2021/06/10 04:22:34;;;;;;;17.30;14.27;;;16.40;99.90;;;;;;5069885;28;20126;-68
2021/06/10 04:25:06;;;;;;;18.30;14.80;;;16.40;99.90;;;;;;5058763;28;20407;-68
2021/06/10 04:27:33;;;;;;;20.50;16.65;;;16.60;99.90;;;;;;5058779;28;20064;-68
2021/06/10 04:30:00;;;;;;;29.92;21.10;;;16.70;99.90;;;;;;5080209;28;20140;-68
2021/06/10 04:32:29;;;;;;;28.58;20.20;;;16.90;99.90;;;;;;5061997;28;20450;-68
2021/06/10 04:34:56;;;;;;;27.25;20.70;;;17.10;99.90;;;;;;5067112;28;20053;-68
2021/06/10 04:37:23;;;;;;;29.30;20.52;;;17.30;99.90;;;;;;5068573;28;20044;-68
2021/06/10 04:39:51;;;;;;;26.63;19.58;;;17.50;99.90;;;;;;5069854;28;20473;-68
2021/06/10 04:42:18;;;;;;;27.88;22.40;;;17.50;99.90;;;;;;5064169;28;20083;-68
2021/06/10 04:44:45;;;;;;;24.05;19.17;;;17.70;99.90;;;;;;5074432;28;20052;-68
2021/06/10 04:47:13;;;;;;;26.13;18.80;;;17.80;99.90;;;;;;5070400;28;20072;-68
2021/06/10 04:49:40;;;;;;;28.27;21.75;;;18.00;99.90;;;;;;5052438;28;20045;-69
2021/06/10 04:52:08;;;;;;;25.45;17.77;;;18.10;99.90;;;;;;5068002;28;20485;-69
2021/06/10 04:54:35;;;;;;;24.02;19.30;;;18.20;99.90;;;;;;5070276;28;20048;-68
2021/06/10 04:57:04;;;;;;;23.95;17.25;;;18.30;99.90;;;;;;5071327;28;20533;-68
2021/06/10 04:59:32;;;;;;;19.80;16.48;;;18.50;99.90;;;;;;5071996;28;20093;-68
2021/06/10 05:02:01;;;;;;;18.45;16.05;;;18.60;99.90;;;;;;5064374;28;20067;-68
2021/06/10 05:04:29;;;;;;;20.13;16.60;;;18.70;99.90;;;;;;5072217;28;20545;-68
2021/06/10 05:06:56;;;;;;;22.77;16.75;;;18.80;99.90;;;;;;5067881;28;20080;-68
2021/06/10 05:09:23;;;;;;;19.95;15.82;;;19.00;99.90;;;;;;5071854;28;20086;-68
2021/06/10 05:11:51;;;;;;;19.98;15.40;;;19.20;99.90;;;;;;5066688;28;20044;-68
2021/06/10 05:14:19;;;;;;;20.17;16.60;;;19.40;99.90;;;;;;5068085;28;20054;-68
2021/06/10 05:16:49;;;;;;;22.95;18.20;;;19.60;99.90;;;;;;5067869;28;20391;-68
2021/06/10 05:19:17;;;;;;;21.25;18.77;;;19.80;99.90;;;;;;5071339;28;20051;-68
2021/06/10 05:21:45;;;;;;;24.23;20.20;;;19.90;99.90;;;;;;5083094;28;20136;-68
2021/06/10 05:24:13;;;;;;;26.58;21.58;;;20.10;99.90;;;;;;5067493;28;20502;-68
2021/06/10 05:26:41;;;;;;;27.02;21.60;;;20.10;99.90;;;;;;5060870;28;20131;-68
2021/06/10 05:29:08;;;;;;;28.45;21.92;;;20.20;99.90;;;;;;5063998;28;20037;-68
2021/06/10 05:31:36;;;;;;;25.83;20.08;;;20.30;99.90;;;;;;5070574;28;20041;-68
2021/06/10 05:34:03;;;;;;;29.42;22.38;;;20.30;99.90;;;;;;5070651;28;20072;-68
2021/06/10 05:36:30;;;;;;;29.08;21.73;;;20.30;99.90;;;;;;5073080;28;20121;-68
2021/06/10 05:38:58;;;;;;;25.75;20.95;;;20.50;99.90;;;;;;5070762;28;20482;-68
2021/06/10 05:41:25;;;;;;;29.55;21.77;;;20.60;99.90;;;;;;5072784;28;20047;-68
2021/06/10 05:43:53;;;;;;;33.17;23.40;;;20.80;99.90;;;;;;5070246;28;20147;-68
2021/06/10 05:46:20;;;;;;;30.52;22.52;;;20.70;99.90;;;;;;5071199;28;20078;-68
2021/06/10 05:48:48;;;;;;;26.58;21.75;;;20.70;99.90;;;;;;5062502;28;20053;-69
2021/06/10 05:51:16;;;;;;;27.90;21.48;;;20.60;99.90;;;;;;5058288;28;20079;-68
2021/06/10 05:53:44;;;;;;;25.75;20.65;;;20.90;99.90;;;;;;5054068;28;20470;-67
2021/06/10 05:56:11;;;;;;;33.10;25.08;;;21.00;99.90;;;;;;5055870;28;20060;-68
2021/06/10 05:58:38;;;;;;;29.15;24.35;;;21.10;99.90;;;;;;5058922;28;20049;-68
2021/06/10 06:01:06;;;;;;;26.33;20.23;;;20.90;99.90;;;;;;5069165;28;20068;-68
2021/06/10 06:03:33;;;;;;;31.10;25.35;;;21.00;99.90;;;;;;5070390;28;20091;-68
2021/06/10 06:06:01;;;;;;;29.42;22.90;;;21.00;99.90;;;;;;5070080;28;20044;-68
2021/06/10 06:08:30;;;;;;;32.30;24.08;;;21.00;99.90;;;;;;5068473;28;20037;-68
2021/06/10 06:10:57;;;;;;;31.83;24.75;;;21.20;99.90;;;;;;5075133;28;20114;-68
2021/06/10 06:13:43;;;;;;;36.38;26.23;;;21.30;99.90;;;;;;5068528;28;20051;-67
2021/06/10 06:16:13;;;;;;;30.08;24.20;;;21.20;99.90;;;;;;5069546;28;20403;-68
2021/06/10 06:18:41;;;;;;;28.70;23.10;;;20.90;99.90;;;;;;5070041;28;20110;-68
2021/06/10 06:21:10;;;;;;;27.73;22.60;;;20.70;99.90;;;;;;5070992;28;20048;-68
2021/06/10 06:23:37;;;;;;;27.15;22.08;;;20.80;99.90;;;;;;5069672;28;20131;-68
2021/06/10 06:26:05;;;;;;;30.45;23.98;;;20.80;99.90;;;;;;5073317;28;20071;-68
2021/06/10 06:28:33;;;;;;;31.13;23.70;;;20.70;99.90;;;;;;5070045;28;20425;-67
2021/06/10 06:31:00;;;;;;;30.63;24.08;;;20.70;99.90;;;;;;5070144;28;20049;-67
2021/06/10 06:33:28;;;;;;;31.58;22.73;;;20.80;99.90;;;;;;5068562;28;20513;-68
2021/06/10 06:35:55;;;;;;;25.15;21.17;;;20.80;99.90;;;;;;5067193;28;20516;-68
2021/06/10 06:38:23;;;;;;;28.70;23.02;;;20.80;99.90;;;;;;5066703;28;20478;-68
2021/06/10 06:40:51;;;;;;;26.30;20.23;;;20.80;99.90;;;;;;5069622;28;20084;-68
2021/06/10 06:43:19;;;;;;;26.98;21.55;;;20.70;99.90;;;;;;5069820;28;20091;-68
2021/06/10 06:45:47;;;;;;;28.58;22.17;;;20.70;99.90;;;;;;5067895;28;20561;-68
2021/06/10 06:48:14;;;;;;;25.42;22.52;;;20.70;99.90;;;;;;5071318;28;20051;-68
2021/06/10 06:50:42;;;;;;;26.20;21.75;;;20.80;99.90;;;;;;5071341;28;20056;-68
2021/06/10 06:53:10;;;;;;;25.50;22.00;;;20.90;99.90;;;;;;5070569;28;20371;-68
2021/06/10 06:55:37;;;;;;;25.17;20.00;;;21.10;99.90;;;;;;5070946;28;20053;-68
2021/06/10 06:58:05;;;;;;;28.80;22.30;;;21.30;99.90;;;;;;5065655;28;20522;-68
2021/06/10 07:00:32;;;;;;;27.52;21.50;;;21.50;99.90;;;;;;5052123;28;20061;-68
2021/06/10 07:03:00;;;;;;;22.80;20.13;;;21.80;99.90;;;;;;5070445;28;20069;-68
2021/06/10 07:05:28;;;;;;;24.77;22.05;;;22.10;99.90;;;;;;5078729;28;20045;-68
2021/06/10 07:07:55;;;;;;;23.63;20.65;;;21.90;99.90;;;;;;5068016;28;20044;-68
2021/06/10 07:10:22;;;;;;;24.70;21.30;;;21.60;99.90;;;;;;5068361;28;20394;-68
2021/06/10 07:12:50;;;;;;;24.58;21.63;;;21.50;99.90;;;;;;5066932;28;20075;-68
2021/06/10 07:15:17;;;;;;;23.15;19.20;;;21.30;99.90;;;;;;5071324;28;20044;-68
2021/06/10 07:17:44;;;;;;;22.45;19.85;;;21.40;99.90;;;;;;5070035;28;20495;-68
2021/06/10 07:20:13;;;;;;;26.50;22.60;;;21.50;99.90;;;;;;5056817;28;20045;-68
2021/06/10 07:22:40;;;;;;;24.38;20.50;;;21.30;99.90;;;;;;5068678;28;20071;-68
2021/06/10 07:25:08;;;;;;;26.55;22.83;;;21.30;99.90;;;;;;5069553;28;20065;-68
2021/06/10 07:27:36;;;;;;;26.10;22.42;;;21.30;99.90;;;;;;5065876;28;20091;-68
2021/06/10 07:30:07;;;;;;;23.02;19.92;;;21.00;99.90;;;;;;5054278;28;20040;-68
2021/06/10 07:32:35;;;;;;;24.15;20.80;;;21.00;99.90;;;;;;5061085;28;20052;-68
2021/06/10 07:35:04;;;;;;;24.23;19.75;;;21.10;99.90;;;;;;5069383;28;20557;-68
2021/06/10 07:37:31;;;;;;;21.15;18.95;;;21.10;99.90;;;;;;5063786;28;20076;-68
2021/06/10 07:39:59;;;;;;;24.27;21.67;;;21.20;99.90;;;;;;5050504;28;20072;-69
2021/06/10 07:42:27;;;;;;;28.38;22.70;;;21.30;99.90;;;;;;5049921;28;20055;-68
2021/06/10 07:44:54;;;;;;;24.20;21.13;;;21.30;99.90;;;;;;5049770;28;20075;-68
2021/06/10 07:47:22;;;;;;;24.42;21.80;;;21.40;99.90;;;;;;5064550;28;20128;-68
2021/06/10 07:49:49;;;;;;;21.45;18.42;;;21.30;99.90;;;;;;5062209;28;20527;-68
2021/06/10 07:52:17;;;;;;;23.83;21.17;;;21.30;99.90;;;;;;5052615;28;20110;-68
2021/06/10 07:54:44;;;;;;;21.42;19.23;;;21.30;99.90;;;;;;5068559;28;20051;-68
2021/06/10 07:57:13;;;;;;;24.58;21.95;;;21.30;99.90;;;;;;5069615;28;20370;-68
2021/06/10 07:59:41;;;;;;;25.60;21.48;;;21.40;99.90;;;;;;5055342;28;20491;-68
2021/06/10 08:02:10;;;;;;;23.40;20.17;;;21.50;99.90;;;;;;5057144;28;20414;-68
2021/06/10 08:04:37;;;;;;;23.48;20.63;;;21.40;99.90;;;;;;5065063;28;20504;-68
2021/06/10 08:07:05;;;;;;;21.90;18.70;;;21.50;99.90;;;;;;5064329;28;20049;-68
2021/06/10 08:09:32;;;;;;;24.30;19.42;;;21.70;99.90;;;;;;5084188;28;20146;-68
2021/06/10 08:12:00;;;;;;;22.73;19.83;;;21.80;99.90;;;;;;5068937;28;20056;-68
2021/06/10 08:14:28;;;;;;;23.45;20.27;;;21.90;99.90;;;;;;5060736;28;20064;-68
2021/06/10 08:16:57;;;;;;;24.75;21.02;;;22.10;99.90;;;;;;5064537;28;20556;-68
2021/06/10 08:19:24;;;;;;;24.35;20.92;;;22.20;99.90;;;;;;5053972;28;20419;-68
2021/06/10 08:21:52;;;;;;;30.02;25.23;;;22.30;99.90;;;;;;5070016;28;20517;-68
2021/06/10 08:24:19;;;;;;;22.60;20.15;;;22.20;99.90;;;;;;5072810;28;20048;-68
2021/06/10 08:26:48;;;;;;;20.80;17.55;;;22.30;99.90;;;;;;5068159;28;20430;-68
2021/06/10 08:29:16;;;;;;;21.08;18.08;;;22.50;99.90;;;;;;5072663;28;20566;-68
2021/06/10 08:31:44;;;;;;;22.55;19.05;;;22.60;99.90;;;;;;5072992;28;20076;-68
2021/06/10 08:34:13;;;;;;;20.08;17.85;;;22.50;99.90;;;;;;5067404;28;20037;-68
2021/06/10 08:36:40;;;;;;;18.88;16.88;;;22.50;99.90;;;;;;5066599;28;20411;-68
2021/06/10 08:39:07;;;;;;;19.73;17.67;;;22.60;99.90;;;;;;5072175;28;20048;-68
2021/06/10 08:41:36;;;;;;;18.20;16.38;;;22.60;99.90;;;;;;5064004;28;20067;-68
2021/06/10 08:44:03;;;;;;;19.30;17.27;;;22.40;99.90;;;;;;5055579;28;20139;-68
2021/06/10 08:46:32;;;;;;;21.67;17.17;;;22.60;99.90;;;;;;5067744;28;20128;-68
2021/06/10 08:49:01;;;;;;;24.02;18.63;;;22.70;99.90;;;;;;5070227;28;20419;-68
2021/06/10 08:51:28;;;;;;;15.95;14.40;;;22.70;99.90;;;;;;5053859;28;20503;-68
2021/06/10 08:53:57;;;;;;;16.90;15.13;;;22.80;99.90;;;;;;5067210;28;20048;-67
2021/06/10 08:56:27;;;;;;;12.48;11.27;;;22.90;99.90;;;;;;5070609;28;20556;-68
2021/06/10 08:58:54;;;;;;;15.52;13.90;;;22.90;99.90;;;;;;5059921;28;20182;-67
2021/06/10 09:01:22;;;;;;;14.63;13.23;;;22.90;99.90;;;;;;5067315;28;20466;-67
2021/06/10 09:03:50;;;;;;;16.95;14.95;;;22.80;99.90;;;;;;5066086;28;20053;-67
2021/06/10 09:06:19;;;;;;;18.10;16.27;;;23.00;99.90;;;;;;5083730;28;20048;-67
2021/06/10 09:08:48;;;;;;;14.38;13.07;;;23.00;99.90;;;;;;5064481;28;20079;-68
2021/06/10 09:11:17;;;;;;;14.45;13.05;;;23.10;99.90;;;;;;5070174;28;20079;-67
2021/06/10 09:13:46;;;;;;;14.02;12.65;;;23.20;99.90;;;;;;5071616;28;20044;-67
2021/06/10 09:16:22;;;;;;;17.00;15.30;;;23.40;99.90;;;;;;5072441;28;20037;-67
2021/06/10 09:19:00;;;;;;;15.60;14.02;;;23.50;99.90;;;;;;5067318;28;20101;-67
2021/06/10 09:21:38;;;;;;;15.90;14.40;;;23.70;99.90;;;;;;5086880;28;20550;-67
2021/06/10 09:24:20;;;;;;;15.82;14.32;;;23.80;99.90;;;;;;5051033;28;20057;-67
2021/06/10 09:27:02;;;;;;;15.20;13.70;;;23.80;99.90;;;;;;5069801;28;20110;-67
2021/06/10 09:29:47;;;;;;;15.15;13.75;;;23.90;99.90;;;;;;5065681;28;20132;-67
2021/06/10 09:32:41;;;;;;;14.70;13.20;;;24.10;99.90;;;;;;5068598;28;20114;-67
2021/06/10 09:35:10;;;;;;;15.38;13.98;;;24.30;99.90;;;;;;5070145;28;20053;-67
2021/06/10 09:37:42;;;;;;;13.82;12.38;;;24.60;99.90;;;;;;5050452;28;20380;-67
2021/06/10 09:40:13;;;;;;;16.73;15.13;;;24.70;99.90;;;;;;5053044;28;20127;-68
2021/06/10 09:42:42;;;;;;;15.52;14.13;;;24.90;99.90;;;;;;5059648;28;20475;-67
2021/06/10 09:45:13;;;;;;;16.05;14.52;;;24.80;99.90;;;;;;5071960;28;20079;-67
2021/06/10 09:47:46;;;;;;;16.63;14.95;;;25.10;99.90;;;;;;5065472;28;20554;-68
2021/06/10 09:50:16;;;;;;;15.43;14.13;;;25.10;99.90;;;;;;5072206;28;20044;-67
2021/06/10 09:53:01;;;;;;;14.32;13.00;;;25.10;99.90;;;;;;5070326;28;20057;-67
2021/06/10 09:56:03;;;;;;;15.70;14.40;;;25.40;99.90;;;;;;5072379;28;20048;-67
2021/06/10 09:58:40;;;;;;;17.80;16.13;;;25.60;99.90;;;;;;5076573;28;20139;-67
2021/06/10 10:01:17;;;;;;;14.93;13.43;;;25.50;99.90;;;;;;5070436;28;20465;-67
2021/06/10 10:03:47;;;;;;;13.95;12.82;;;25.50;99.90;;;;;;5063966;28;20317;-67
2021/06/10 10:06:20;;;;;;;14.07;12.82;;;25.50;99.90;;;;;;5068867;28;20102;-67
2021/06/10 10:08:58;;;;;;;14.32;13.13;;;25.60;99.90;;;;;;5070717;28;20041;-67
2021/06/10 10:11:26;;;;;;;14.02;12.90;;;25.60;99.90;;;;;;5064376;28;20049;-67
2021/06/10 10:13:57;;;;;;;13.50;12.23;;;25.80;99.90;;;;;;5061974;28;20049;-67
2021/06/10 10:16:45;;;;;;;13.70;12.63;;;25.60;99.90;;;;;;5070100;28;20163;-67
2021/06/10 10:19:12;;;;;;;13.63;12.40;;;25.70;99.90;;;;;;5070534;28;20068;-67
2021/06/10 10:21:42;;;;;;;12.98;11.98;;;25.90;99.90;;;;;;5061836;28;20041;-67
2021/06/10 10:24:12;;;;;;;13.07;11.98;;;25.90;99.90;;;;;;5062645;28;20406;-67
2021/06/10 10:26:41;;;;;;;14.00;12.90;;;26.00;99.90;;;;;;5075329;28;20087;-67
2021/06/10 10:29:11;;;;;;;13.70;12.40;;;26.00;99.90;;;;;;5070939;28;20376;-67
2021/06/10 10:31:41;;;;;;;13.23;12.13;;;25.90;99.90;;;;;;5069681;28;20044;-67
2021/06/10 10:34:22;;;;;;;13.02;11.85;;;25.90;99.90;;;;;;5066686;28;20056;-67
2021/06/10 10:36:49;;;;;;;13.13;12.00;;;25.70;99.90;;;;;;5065839;28;20083;-68
2021/06/10 10:39:27;;;;;;;12.75;11.75;;;25.70;99.90;;;;;;5070746;28;20399;-67
2021/06/10 10:41:55;;;;;;;12.68;11.57;;;25.90;99.90;;;;;;5071375;28;20094;-67
2021/06/10 10:44:31;;;;;;;13.30;12.30;;;26.10;99.90;;;;;;5062016;28;20052;-67
2021/06/10 10:47:10;;;;;;;13.25;12.23;;;26.10;99.90;;;;;;5080086;28;20048;-67
2021/06/10 10:49:43;;;;;;;12.52;11.43;;;26.10;99.90;;;;;;5049073;28;20582;-67
2021/06/10 10:52:13;;;;;;;12.45;11.18;;;25.90;99.90;;;;;;5071088;28;20040;-67
2021/06/10 10:54:43;;;;;;;12.10;11.13;;;26.10;99.90;;;;;;5070864;28;20537;-67
2021/06/10 10:57:33;;;;;;;12.43;11.43;;;26.40;99.90;;;;;;5051240;28;20131;-67
2021/06/10 11:00:05;;;;;;;12.25;11.23;;;26.70;99.90;;;;;;5066589;28;20060;-67
2021/06/10 11:02:36;;;;;;;12.43;11.53;;;26.70;99.90;;;;;;5074600;28;20480;-69
2021/06/10 11:05:07;;;;;;;12.23;11.32;;;26.90;99.90;;;;;;5071440;28;20649;-68
2021/06/10 11:07:40;;;;;;;12.25;11.25;;;27.00;99.90;;;;;;5069739;28;20124;-67
2021/06/10 11:10:14;;;;;;;13.35;12.35;;;27.20;99.90;;;;;;5077945;28;20090;-67
2021/06/10 11:12:44;;;;;;;13.68;12.43;;;27.70;99.90;;;;;;5067568;28;20099;-67
2021/06/10 11:15:23;;;;;;;13.48;12.27;;;27.80;99.90;;;;;;5068457;28;20575;-67
2021/06/10 11:17:57;;;;;;;12.73;11.82;;;27.90;99.90;;;;;;5070055;28;20052;-68
2021/06/10 11:20:54;;;;;;;12.95;12.00;;;28.20;99.90;;;;;;5069541;28;20044;-68
2021/06/10 11:23:26;;;;;;;13.25;12.20;;;28.30;99.90;;;;;;5048123;28;20060;-68
2021/06/10 11:25:57;;;;;;;13.65;12.65;;;28.50;99.90;;;;;;5062450;28;20072;-68
2021/06/10 11:28:28;;;;;;;13.07;12.17;;;28.50;99.90;;;;;;5069590;28;20166;-68
2021/06/10 11:31:16;;;;;;;14.02;12.95;;;28.70;99.90;;;;;;5070759;28;20411;-68
2021/06/10 11:33:44;;;;;;;13.27;12.35;;;29.00;99.90;;;;;;5067083;28;20048;-68
2021/06/10 11:36:12;;;;;;;13.90;12.70;;;29.30;99.90;;;;;;5070594;28;20045;-68
2021/06/10 11:38:46;;;;;;;13.75;12.75;;;29.90;99.90;;;;;;5069789;28;20057;-68
2021/06/10 11:41:16;;;;;;;12.65;11.75;;;30.10;99.90;;;;;;5065918;28;20076;-68
2021/06/10 11:43:46;;;;;;;13.77;12.77;;;30.30;99.90;;;;;;5052732;28;20068;-68
2021/06/10 11:46:38;;;;;;;12.65;11.82;;;30.50;99.90;;;;;;5071664;28;20617;-68
2021/06/10 11:49:08;;;;;;;13.38;12.48;;;31.10;99.90;;;;;;5064317;28;20090;-68
2021/06/10 11:51:38;;;;;;;13.93;12.80;;;31.70;99.90;;;;;;5071489;28;20064;-68
2021/06/10 11:54:11;;;;;;;13.82;12.82;;;32.30;99.90;;;;;;5066382;28;20128;-68
2021/06/10 11:56:40;;;;;;;14.00;13.00;;;32.80;99.90;;;;;;5075835;28;20052;-68
2021/06/10 11:59:24;;;;;;;13.75;12.75;;;32.60;99.90;;;;;;5077254;28;20406;-68
2021/06/10 12:02:04;;;;;;;14.13;13.05;;;32.80;99.80;;;;;;5071889;28;20052;-68
2021/06/10 12:04:36;;;;;;;14.13;13.13;;;32.80;99.50;;;;;;5073951;28;20593;-69
2021/06/10 12:07:13;;;;;;;14.35;13.35;;;33.30;98.80;;;;;;5061362;28;20037;-68
2021/06/10 12:09:58;;;;;;;13.77;12.68;;;33.30;98.20;;;;;;5074428;28;20077;-69
2021/06/10 12:12:32;;;;;;;13.90;12.90;;;33.30;96.50;;;;;;5068023;28;20044;-68
2021/06/10 12:14:59;;;;;;;14.45;13.20;;;32.20;97.30;;;;;;5070854;28;20048;-68
2021/06/10 12:17:27;;;;;;;14.85;13.75;;;32.10;98.00;;;;;;5062347;28;20052;-68
2021/06/10 12:20:30;;;;;;;14.45;13.45;;;31.70;98.70;;;;;;5089344;28;20045;-68
2021/06/10 12:23:02;;;;;;;14.27;13.27;;;31.50;99.50;;;;;;5053940;28;20052;-69
2021/06/10 12:25:32;;;;;;;14.50;13.48;;;32.00;99.30;;;;;;5076878;28;20052;-68
2021/06/10 12:28:02;;;;;;;14.35;13.18;;;32.60;97.90;;;;;;5078153;28;20110;-68
2021/06/10 12:30:37;;;;;;;14.65;13.63;;;33.10;96.40;;;;;;5068884;28;20044;-68
2021/06/10 12:33:21;;;;;;;14.98;13.93;;;32.70;96.40;;;;;;5071496;28;20060;-68
2021/06/10 12:35:51;;;;;;;14.30;13.23;;;32.10;97.00;;;;;;5072209;28;20045;-68
2021/06/10 12:38:35;;;;;;;14.68;13.57;;;31.40;97.30;;;;;;5091952;28;20597;-68
2021/06/10 12:41:15;;;;;;;15.00;13.93;;;31.40;97.70;;;;;;5063281;28;20052;-68
2021/06/10 12:43:44;;;;;;;14.45;13.38;;;32.00;97.50;;;;;;5073026;28;20131;-68